Time;durP1;ratioP1;P1;durP2;ratioP2;P2;SDS_P1;SDS_P2;PMS_P1;PMS_P2;Temp;Humidity;BMP_temperature;BMP_pressure;BME280_temperature;BME280_humidity;BME280_pressure;Samples;Min_cycle;Max_cycle;Signal;HPM_P1;HPM_P2
2021/07/18 00:00:20;;;;;;;;;;;;;;;23.23;67.94;98873.03;361988;109;2926991;-74
2021/07/18 00:01:25;;;;;;;;;;;;;;;23.23;68.03;98880.45;364712;108;2856067;-71
2021/07/18 00:02:37;;;;;;;;;;;;;;;23.34;67.72;98878.30;392184;104;1960071;-74
2021/07/18 00:03:42;;;;;;;;;;;;;;;23.24;68.07;98880.16;385778;105;1959982;-75
2021/07/18 00:04:55;;;;;;;;;;;;;;;23.34;68.20;98879.13;395836;104;1960860;-75
2021/07/18 00:06:00;;;;;;;;;;;;;;;23.23;68.07;98877.70;374967;107;1961316;-74
2021/07/18 00:07:24;;;;;;;;;;;;;;;23.24;67.89;98880.16;374078;107;1960019;-73
2021/07/18 00:08:29;;;;;;;;;;;;;;;23.25;68.12;98879.02;371660;108;1959924;-74
2021/07/18 00:09:40;;;;;;;;;;;;;;;23.37;68.06;98866.67;399443;104;1960043;-74
2021/07/18 00:10:46;;;;;;;;;;;;;;;23.28;67.95;98863.81;376300;106;1961020;-74
2021/07/18 00:11:51;;;;;;;;;;;;;;;23.29;67.97;98870.97;379185;107;1959982;-73
2021/07/18 00:12:56;;;;;;;;;;;;;;;23.31;68.12;98867.89;376606;106;1959941;-73
2021/07/18 00:14:01;;;;;;;;;;;;;;;23.32;68.02;98859.33;378625;107;1959951;-74
2021/07/18 00:15:13;;;;;;;;;;;;;;;23.43;68.13;98846.12;397147;104;1959957;-74
2021/07/18 00:16:18;;;;;;;;;;;;;;;23.31;68.04;98846.66;379063;107;1960056;-74
2021/07/18 00:17:23;;;;;;;;;;;;;;;23.31;67.93;98849.41;379592;107;1961005;-75
2021/07/18 00:18:28;;;;;;;;;;;;;;;23.32;67.99;98851.06;381192;107;1959988;-74
2021/07/18 00:19:40;;;;;;;;;;;;;;;23.44;67.99;98859.58;400144;104;1959946;-75
2021/07/18 00:20:46;;;;;;;;;;;;;;;23.34;67.98;98864.52;383098;105;1961005;-74
2021/07/18 00:21:58;;;;;;;;;;;;;;;23.43;68.01;98860.72;401228;103;1960011;-72
2021/07/18 00:23:04;;;;;;;;;;;;;;;23.32;68.27;98862.09;383550;105;1960999;-74
2021/07/18 00:24:09;;;;;;;;;;;;;;;23.32;67.97;98853.81;382450;105;1961049;-75
2021/07/18 00:25:14;;;;;;;;;;;;;;;23.31;68.08;98854.11;358737;105;1960016;-74
2021/07/18 00:26:26;;;;;;;;;;;;;;;23.41;68.09;98851.94;387406;106;1960056;-74
2021/07/18 00:27:30;;;;;;;;;;;;;;;23.33;67.82;98849.92;365550;111;1960972;-74
2021/07/18 00:28:42;;;;;;;;;;;;;;;23.44;68.12;98854.07;390863;106;1960761;-74
2021/07/18 00:29:47;;;;;;;;;;;;;;;23.30;68.43;98856.06;367633;109;1960054;-75
2021/07/18 00:31:11;;;;;;;;;;;;;;;23.32;68.35;98862.09;316562;109;2145986;-75
2021/07/18 00:32:22;;;;;;;;;;;;;;;23.46;68.01;98862.04;399953;104;1961053;-74
2021/07/18 00:33:27;;;;;;;;;;;;;;;23.35;68.12;98866.16;377294;106;1959964;-74
2021/07/18 00:34:32;;;;;;;;;;;;;;;23.37;67.85;98861.97;378101;106;1961023;-74
2021/07/18 00:35:37;;;;;;;;;;;;;;;23.38;67.89;98855.33;353344;108;1959979;-74
2021/07/18 00:36:44;;;;;;;;;;;;;;;23.40;67.82;98855.02;363013;108;1959989;-73
2021/07/18 00:37:49;;;;;;;;;;;;;;;23.41;67.85;98860.20;372672;109;1959961;-74
2021/07/18 00:39:00;;;;;;;;;;;;;;;23.54;67.85;98854.98;390995;106;1961028;-73
2021/07/18 00:40:06;;;;;;;;;;;;;;;23.41;67.88;98856.64;372799;108;1960003;-74
2021/07/18 00:41:19;;;;;;;;;;;;;;;23.53;68.03;98853.36;364540;104;2826008;-73
2021/07/18 00:42:25;;;;;;;;;;;;;;;23.39;67.91;98845.11;313776;105;2441045;-74
2021/07/18 00:43:49;;;;;;;;;;;;;;;23.39;68.09;98854.22;376623;106;1960065;-74
2021/07/18 00:45:00;;;;;;;;;;;;;;;23.48;68.03;98854.28;388243;104;1960006;-73
2021/07/18 00:46:06;;;;;;;;;;;;;;;23.35;68.36;98852.38;347486;106;2006999;-73
2021/07/18 00:47:11;;;;;;;;;;;;;;;23.32;68.35;98851.06;364107;106;1959851;-73
2021/07/18 00:48:16;;;;;;;;;;;;;;;23.28;68.37;98850.03;367915;105;1959979;-73
2021/07/18 00:49:28;;;;;;;;;;;;;;;23.37;69.07;98847.38;402503;104;1960981;-72
2021/07/18 00:50:34;;;;;;;;;;;;;;;23.22;69.09;98843.83;383996;105;1959919;-73
2021/07/18 00:51:39;;;;;;;;;;;;;;;23.19;69.15;98836.19;385984;105;1960947;-74
2021/07/18 00:52:52;;;;;;;;;;;;;;;23.24;69.58;98841.58;398397;104;1960019;-77
2021/07/18 00:53:57;;;;;;;;;;;;;;;23.13;69.47;98837.43;377877;107;1961007;-73
2021/07/18 00:55:11;;;;;;;;;;;;;;;23.23;69.14;98834.45;394304;104;1960002;-73
2021/07/18 00:56:16;;;;;;;;;;;;;;;23.15;69.06;98839.86;372912;109;1959947;-74
2021/07/18 00:57:28;;;;;;;;;;;;;;;23.28;69.08;98832.70;396919;104;1960029;-75
2021/07/18 00:58:34;;;;;;;;;;;;;;;23.16;69.34;98833.25;377371;107;1959977;-73
2021/07/18 00:59:57;;;;;;;;;;;;;;;23.15;69.27;98832.41;376630;107;1960102;-74
2021/07/18 01:01:03;;;;;;;;;;;;;;;23.17;69.28;98829.35;372454;107;1959975;-74
2021/07/18 01:02:08;;;;;;;;;;;;;;;23.13;69.48;98829.17;373173;107;1959990;-74
2021/07/18 01:03:14;;;;;;;;;;;;;;;23.15;69.46;98831.59;364362;110;1960049;-73
2021/07/18 01:04:27;;;;;;;;;;;;;;;23.25;69.54;98829.42;357307;104;2633076;-73
2021/07/18 01:05:32;;;;;;;;;;;;;;;23.14;69.46;98832.73;339157;108;2026968;-73
2021/07/18 01:06:37;;;;;;;;;;;;;;;23.14;69.66;98833.54;335458;107;2065082;-73
2021/07/18 01:07:49;;;;;;;;;;;;;;;23.27;69.65;98823.62;400669;104;1961026;-73
2021/07/18 01:08:54;;;;;;;;;;;;;;;23.13;69.80;98831.08;377628;106;1961838;-74
2021/07/18 01:10:00;;;;;;;;;;;;;;;23.11;69.98;98825.09;374514;106;1960082;-73
2021/07/18 01:11:11;;;;;;;;;;;;;;;23.19;69.89;98821.59;400222;103;1961023;-73
2021/07/18 01:12:16;;;;;;;;;;;;;;;23.09;69.92;98827.33;384622;105;1959974;-73
2021/07/18 01:13:21;;;;;;;;;;;;;;;23.07;70.20;98832.33;383127;105;1959892;-73
2021/07/18 01:14:34;;;;;;;;;;;;;;;23.16;70.27;98824.98;398515;104;1960014;-73
2021/07/18 01:15:39;;;;;;;;;;;;;;;23.02;70.50;98820.31;381277;106;1960061;-73
2021/07/18 01:16:51;;;;;;;;;;;;;;;23.07;70.34;98819.37;399064;104;1960908;-73
2021/07/18 01:17:56;;;;;;;;;;;;;;;23.03;70.52;98830.20;354808;107;2005993;-75
2021/07/18 01:19:20;;;;;;;;;;;;;;;23.09;70.41;98827.33;378432;106;1959922;-72
2021/07/18 01:20:33;;;;;;;;;;;;;;;23.29;70.55;98826.88;347618;106;2759035;-73
2021/07/18 01:21:39;;;;;;;;;;;;;;;23.24;70.42;98836.08;322180;109;2256968;-73
2021/07/18 01:22:44;;;;;;;;;;;;;;;23.32;70.12;98830.96;330472;108;2166021;-72
2021/07/18 01:23:56;;;;;;;;;;;;;;;23.47;70.10;98834.17;397902;104;1960006;-72
2021/07/18 01:25:01;;;;;;;;;;;;;;;23.41;69.93;98845.62;378097;107;1959930;-73
2021/07/18 01:26:13;;;;;;;;;;;;;;;23.60;69.73;98837.17;398738;103;1960896;-74
2021/07/18 01:27:18;;;;;;;;;;;;;;;23.53;69.52;98840.38;381413;105;1960020;-73
2021/07/18 01:28:23;;;;;;;;;;;;;;;23.58;69.44;98840.27;377008;105;1960045;-72
2021/07/18 01:29:28;;;;;;;;;;;;;;;23.63;69.25;98836.55;380605;105;1960039;-74
2021/07/18 01:30:41;;;;;;;;;;;;;;;23.77;69.19;98828.27;401130;104;1960053;-74
2021/07/18 01:31:46;;;;;;;;;;;;;;;23.65;69.35;98837.05;387591;105;1960025;-74
2021/07/18 01:32:51;;;;;;;;;;;;;;;23.61;69.28;98836.88;385246;105;1960023;-73
2021/07/18 01:34:03;;;;;;;;;;;;;;;23.71;69.31;98833.07;391831;104;2932985;-75
2021/07/18 01:35:09;;;;;;;;;;;;;;;23.59;69.42;98838.31;379296;106;1959975;-73
2021/07/18 01:36:20;;;;;;;;;;;;;;;23.65;69.77;98837.87;388537;106;1959812;-74
2021/07/18 01:37:25;;;;;;;;;;;;;;;23.49;69.82;98837.41;370960;109;1959919;-73
2021/07/18 01:38:37;;;;;;;;;;;;;;;23.49;70.61;98840.17;398720;104;1960971;-73
2021/07/18 01:39:42;;;;;;;;;;;;;;;23.31;70.52;98837.58;377901;107;1960028;-72
2021/07/18 01:40:47;;;;;;;;;;;;;;;23.26;70.65;98835.78;374881;108;1958734;-73
2021/07/18 01:41:54;;;;;;;;;;;;;;;23.23;70.75;98833.61;341244;106;2122887;-73
2021/07/18 01:42:59;;;;;;;;;;;;;;;23.29;70.61;98839.82;375955;107;1958759;-75
2021/07/18 01:44:11;;;;;;;;;;;;;;;23.45;70.61;98839.18;402233;103;1958716;-73
2021/07/18 01:45:16;;;;;;;;;;;;;;;23.39;70.51;98832.16;372018;107;1958807;-73
2021/07/18 01:46:28;;;;;;;;;;;;;;;23.60;70.25;98835.23;399826;104;1958816;-73
2021/07/18 01:47:34;;;;;;;;;;;;;;;23.55;70.11;98835.37;377089;106;1958712;-73
2021/07/18 01:48:40;;;;;;;;;;;;;;;23.60;69.87;98831.66;379492;105;1958808;-72
2021/07/18 01:49:46;;;;;;;;;;;;;;;23.65;69.82;98839.81;344875;107;2831678;-73
2021/07/18 01:50:58;;;;;;;;;;;;;;;23.82;69.58;98839.98;377519;107;1959856;-73
2021/07/18 01:52:03;;;;;;;;;;;;;;;23.73;69.42;98833.58;360734;110;1959801;-73
2021/07/18 01:53:09;;;;;;;;;;;;;;;23.74;69.30;98831.62;359626;112;1958936;-73
2021/07/18 01:54:14;;;;;;;;;;;;;;;23.70;69.29;98834.17;360307;113;1958823;-72
2021/07/18 01:55:25;;;;;;;;;;;;;;;23.78;69.33;98832.64;389923;105;1958819;-72
2021/07/18 01:56:31;;;;;;;;;;;;;;;23.60;69.52;98832.47;372036;105;1958747;-74
2021/07/18 01:57:36;;;;;;;;;;;;;;;23.55;69.53;98842.81;371628;107;1958832;-73
2021/07/18 01:58:50;;;;;;;;;;;;;;;23.59;69.76;98841.07;391046;106;1958610;-73
2021/07/18 01:59:55;;;;;;;;;;;;;;;23.42;69.75;98844.52;334617;108;2577831;-74
2021/07/18 02:01:01;;;;;;;;;;;;;;;23.37;69.74;98847.38;299462;110;2314927;-73
2021/07/18 02:02:06;;;;;;;;;;;;;;;23.32;70.31;98841.98;329419;108;2057610;-73
2021/07/18 02:03:18;;;;;;;;;;;;;;;23.37;70.32;98839.92;409491;101;1958699;-73
2021/07/18 02:04:23;;;;;;;;;;;;;;;23.22;70.43;98843.02;387077;105;1959779;-74
2021/07/18 02:05:30;;;;;;;;;;;;;;;23.17;70.87;98838.42;381128;105;1958744;-73
2021/07/18 02:07:03;;;;;;;;;;;;;;;23.26;70.68;98835.78;398464;103;1958773;-74
2021/07/18 02:08:09;;;;;;;;;;;;;;;23.17;70.92;98832.11;341482;105;2823997;-75
2021/07/18 02:09:15;;;;;;;;;;;;;;;23.22;70.76;98829.24;312496;105;2603907;-74
2021/07/18 02:10:21;;;;;;;;;;;;;;;23.31;70.48;98835.63;376572;105;1960006;-73
2021/07/18 02:11:33;;;;;;;;;;;;;;;23.49;70.29;98828.34;398641;104;1959974;-73
2021/07/18 02:12:38;;;;;;;;;;;;;;;23.46;70.06;98832.53;379279;106;1960079;-72
2021/07/18 02:13:51;;;;;;;;;;;;;;;23.63;69.84;98834.63;400858;104;1960010;-72
2021/07/18 02:14:56;;;;;;;;;;;;;;;23.59;69.68;98835.56;371261;105;2936201;-72
2021/07/18 02:16:20;;;;;;;;;;;;;;;23.63;69.35;98831.88;378384;106;1959986;-72
2021/07/18 02:17:25;;;;;;;;;;;;;;;23.69;69.25;98832.56;375527;107;1960899;-71
2021/07/18 02:18:37;;;;;;;;;;;;;;;23.88;68.93;98835.97;396396;104;1960017;-73
2021/07/18 02:19:42;;;;;;;;;;;;;;;23.80;68.83;98830.39;378174;107;1960024;-72
2021/07/18 02:20:47;;;;;;;;;;;;;;;23.77;68.80;98826.32;373567;108;1960062;-73
2021/07/18 02:21:59;;;;;;;;;;;;;;;23.87;68.77;98836.30;389467;106;1959876;-72
2021/07/18 02:23:05;;;;;;;;;;;;;;;23.73;68.86;98833.58;327461;110;2083020;-72
2021/07/18 02:24:11;;;;;;;;;;;;;;;23.71;68.74;98835.83;299495;110;2342063;-73
2021/07/18 02:25:25;;;;;;;;;;;;;;;23.80;68.91;98833.97;397827;103;1960044;-73
2021/07/18 02:26:31;;;;;;;;;;;;;;;23.67;68.84;98823.78;374537;107;1961053;-72
2021/07/18 02:27:43;;;;;;;;;;;;;;;23.77;68.75;98825.52;386966;106;1959975;-74
2021/07/18 02:28:55;;;;;;;;;;;;;;;23.74;68.86;98818.68;399221;104;1960945;-73
2021/07/18 02:30:20;;;;;;;;;;;;;;;23.62;68.85;98818.39;371414;107;1959871;-73
2021/07/18 02:31:32;;;;;;;;;;;;;;;23.71;68.86;98819.28;396139;104;1962006;-73
2021/07/18 02:32:38;;;;;;;;;;;;;;;23.60;68.88;98820.64;378038;106;1960947;-73
2021/07/18 02:36:39;;;;;;;;;;;;;;;23.65;68.99;98818.56;397936;104;1960082;-73
2021/07/18 02:37:45;;;;;;;;;;;;;;;23.54;69.08;98814.44;381342;105;1960043;-73
2021/07/18 02:38:58;;;;;;;;;;;;;;;23.65;68.81;98809.48;402148;103;1959892;-73
2021/07/18 02:40:04;;;;;;;;;;;;;;;23.53;68.88;98812.01;379019;105;1960880;-74
2021/07/18 02:41:27;;;;;;;;;;;;;;;23.53;68.84;98815.57;368799;106;1960045;-74
2021/07/18 02:42:39;;;;;;;;;;;;;;;23.61;68.93;98820.34;377933;109;1959974;-73
2021/07/18 02:43:44;;;;;;;;;;;;;;;23.49;68.93;98817.31;358125;111;1960053;-73
2021/07/18 02:45:09;;;;;;;;;;;;;;;23.60;68.84;98824.20;402339;103;1959997;-73
2021/07/18 02:46:21;;;;;;;;;;;;;;;23.60;68.89;98826.16;398127;105;1959955;-72
2021/07/18 02:47:45;;;;;;;;;;;;;;;23.49;69.00;98820.88;352262;109;1960047;-70
2021/07/18 02:48:50;;;;;;;;;;;;;;;23.51;68.98;98817.82;363398;111;1960005;-72
2021/07/18 02:49:54;;;;;;;;;;;;;;;23.52;68.83;98835.17;342508;111;1959984;-72
2021/07/18 02:51:06;;;;;;;;;;;;;;;23.63;68.80;98822.77;403131;104;1960003;-72
2021/07/18 02:52:12;;;;;;;;;;;;;;;23.53;68.78;98820.28;382295;107;1959944;-73
2021/07/18 02:53:17;;;;;;;;;;;;;;;23.54;68.64;98819.95;382511;105;1960034;-72
2021/07/18 02:54:28;;;;;;;;;;;;;;;23.67;68.67;98813.56;402057;103;1961982;-71
2021/07/18 02:55:33;;;;;;;;;;;;;;;23.58;68.54;98815.45;379794;107;1960094;-73
2021/07/18 02:56:46;;;;;;;;;;;;;;;23.74;68.34;98817.84;396594;104;1959986;-73
2021/07/18 02:57:51;;;;;;;;;;;;;;;23.61;68.40;98816.77;379812;107;1960024;-72
2021/07/18 02:58:56;;;;;;;;;;;;;;;23.63;68.39;98822.77;381219;107;1959982;-72
2021/07/18 03:00:03;;;;;;;;;;;;;;;23.67;68.16;98818.27;376344;107;1960035;-73
2021/07/18 03:01:16;;;;;;;;;;;;;;;23.79;68.07;98814.95;400704;104;1961001;-71
2021/07/18 03:02:21;;;;;;;;;;;;;;;23.69;68.11;98813.26;375846;107;1959995;-73
2021/07/18 03:03:26;;;;;;;;;;;;;;;23.74;67.94;98810.41;376469;107;1960959;-74
2021/07/18 03:04:31;;;;;;;;;;;;;;;23.76;67.89;98808.12;377340;107;1961121;-73
2021/07/18 03:05:42;;;;;;;;;;;;;;;23.92;67.75;98814.07;396069;104;1959925;-73
2021/07/18 03:06:48;;;;;;;;;;;;;;;23.81;67.69;98813.52;376303;107;1960028;-73
2021/07/18 03:08:00;;;;;;;;;;;;;;;23.96;67.67;98806.00;348473;106;2660849;-73
2021/07/18 03:09:06;;;;;;;;;;;;;;;23.85;67.66;98805.45;304288;109;2411025;-73
2021/07/18 03:10:43;;;;;;;;;;;;;;;23.86;67.50;98816.15;366005;109;1959918;-73
2021/07/18 03:12:40;;;;;;;;;;;;;;;23.86;67.44;98813.39;321965;111;2798823;-72
2021/07/18 03:14:36;;;;;;;;;;;;;;;23.88;67.31;98816.66;367947;109;1960954;-73
2021/07/18 03:16:12;;;;;;;;;;;;;;;24.02;67.22;98807.48;360148;105;2584944;-72
2021/07/18 03:17:18;;;;;;;;;;;;;;;23.91;67.08;98810.50;353899;106;1959876;-72
2021/07/18 03:18:24;;;;;;;;;;;;;;;23.94;67.05;98802.73;332399;106;2127997;-72
2021/07/18 03:19:35;;;;;;;;;;;;;;;24.09;67.06;98813.38;401296;104;1960973;-72
2021/07/18 03:20:42;;;;;;;;;;;;;;;23.99;66.96;98805.36;373338;109;1960003;-72
2021/07/18 03:21:54;;;;;;;;;;;;;;;24.12;66.90;98816.31;402851;104;1962122;-71
2021/07/18 03:22:59;;;;;;;;;;;;;;;24.04;66.77;98813.52;383751;105;1959982;-73
2021/07/18 03:24:22;;;;;;;;;;;;;;;24.05;66.74;98815.94;382303;107;1959992;-73
2021/07/18 03:25:27;;;;;;;;;;;;;;;24.08;66.75;98815.33;376192;105;1959881;-73
2021/07/18 03:26:32;;;;;;;;;;;;;;;24.10;66.65;98821.32;377785;105;1960043;-72
2021/07/18 03:27:50;;;;;;;;;;;;;;;24.24;66.52;98817.66;400524;104;1959821;-73
2021/07/18 03:28:55;;;;;;;;;;;;;;;24.13;66.41;98815.20;383509;105;1960010;-71
2021/07/18 03:30:08;;;;;;;;;;;;;;;24.26;66.45;98810.69;393922;104;1959972;-71
2021/07/18 03:31:13;;;;;;;;;;;;;;;24.21;66.33;98818.30;330514;110;2034006;-71
2021/07/18 03:32:18;;;;;;;;;;;;;;;24.22;66.28;98815.23;347273;110;1959918;-72
2021/07/18 03:33:24;;;;;;;;;;;;;;;24.26;66.21;98813.45;315616;110;2197907;-72
2021/07/18 03:34:29;;;;;;;;;;;;;;;24.29;66.10;98814.77;295658;110;2388063;-73
2021/07/18 03:35:41;;;;;;;;;;;;;;;24.48;65.78;98814.58;393522;106;1961028;-72
2021/07/18 03:36:46;;;;;;;;;;;;;;;24.35;65.78;98813.52;375297;109;1960011;-73
2021/07/18 03:37:51;;;;;;;;;;;;;;;24.35;65.83;98811.56;369716;109;1959975;-71
2021/07/18 03:38:56;;;;;;;;;;;;;;;24.38;65.72;98812.87;351212;108;1960018;-73
2021/07/18 03:40:02;;;;;;;;;;;;;;;24.40;65.69;98809.77;303237;109;2302986;-74
2021/07/18 03:41:07;;;;;;;;;;;;;;;24.43;65.63;98811.92;361972;109;1959849;-73
2021/07/18 03:42:12;;;;;;;;;;;;;;;24.45;65.55;98807.75;362803;111;1959976;-76
2021/07/18 03:43:17;;;;;;;;;;;;;;;24.50;65.37;98815.05;343220;110;1960064;-74
2021/07/18 03:44:22;;;;;;;;;;;;;;;24.51;65.31;98808.41;331713;109;1988907;-73
2021/07/18 03:45:28;;;;;;;;;;;;;;;24.52;65.31;98812.79;295796;109;2362951;-74
2021/07/18 03:46:33;;;;;;;;;;;;;;;24.51;65.38;98808.41;318390;109;2139010;-72
2021/07/18 03:47:39;;;;;;;;;;;;;;;24.53;65.36;98809.72;323012;109;2119947;-72
2021/07/18 03:48:44;;;;;;;;;;;;;;;24.56;65.32;98811.03;349337;112;1960085;-73
2021/07/18 03:49:49;;;;;;;;;;;;;;;24.59;65.28;98809.58;329396;111;2056030;-74
2021/07/18 03:51:21;;;;;;;;;;;;;;;24.72;65.23;98801.17;400270;103;1960021;-73
2021/07/18 03:52:26;;;;;;;;;;;;;;;24.64;65.23;98810.25;375456;107;1961836;-74
2021/07/18 03:53:31;;;;;;;;;;;;;;;24.69;65.08;98800.98;362193;105;1960038;-73
2021/07/18 03:54:42;;;;;;;;;;;;;;;24.84;64.97;98805.25;399897;104;1959943;-71
2021/07/18 03:55:47;;;;;;;;;;;;;;;24.74;64.88;98807.20;382067;107;1959971;-73
2021/07/18 03:56:52;;;;;;;;;;;;;;;24.78;64.84;98810.92;378322;107;1959875;-74
2021/07/18 03:57:57;;;;;;;;;;;;;;;24.81;64.93;98809.47;375099;107;1960920;-75
2021/07/18 03:59:09;;;;;;;;;;;;;;;24.97;64.69;98815.36;375250;109;1959885;-76
2021/07/18 04:00:16;;;;;;;;;;;;;;;24.91;64.53;98811.94;349110;116;1960037;-74
2021/07/18 04:01:28;;;;;;;;;;;;;;;25.26;63.82;98819.50;358509;104;2132044;-75
2021/07/18 04:02:34;;;;;;;;;;;;;;;25.17;63.90;98819.50;324669;107;2230037;-74
2021/07/18 04:03:57;;;;;;;;;;;;;;;25.26;63.57;98816.73;377895;106;1960304;-73
2021/07/18 04:05:10;;;;;;;;;;;;;;;25.49;63.20;98809.11;349029;103;2814991;-75
2021/07/18 04:06:15;;;;;;;;;;;;;;;25.46;63.01;98813.34;362914;107;1960978;-74
2021/07/18 04:07:20;;;;;;;;;;;;;;;25.59;62.70;98809.59;354847;107;1959989;-74
2021/07/18 04:08:26;;;;;;;;;;;;;;;25.69;62.25;98810.38;317097;107;2295007;-72
2021/07/18 04:09:31;;;;;;;;;;;;;;;25.74;61.90;98812.98;348317;107;2007093;-76
2021/07/18 04:10:37;;;;;;;;;;;;;;;25.81;61.93;98811.34;305440;107;2406945;-73
2021/07/18 04:11:42;;;;;;;;;;;;;;;25.88;61.65;98808.12;307996;106;2369020;-72
2021/07/18 04:12:47;;;;;;;;;;;;;;;25.94;61.54;98808.76;309090;106;2365950;-73
2021/07/18 04:13:53;;;;;;;;;;;;;;;26.00;61.27;98811.01;312602;107;2339986;-74
2021/07/18 04:15:06;;;;;;;;;;;;;;;26.22;61.13;98806.38;386667;108;1958700;-74
2021/07/18 04:16:18;;;;;;;;;;;;;;;26.29;60.74;98801.96;401814;104;1959966;-75
2021/07/18 04:17:41;;;;;;;;;;;;;;;26.23;60.45;98808.03;378810;105;1961034;-74
2021/07/18 04:18:46;;;;;;;;;;;;;;;26.31;60.29;98816.30;378127;107;1960969;-74
2021/07/18 04:19:51;;;;;;;;;;;;;;;26.36;60.12;98811.70;378142;107;1960074;-75
2021/07/18 04:20:57;;;;;;;;;;;;;;;26.42;59.97;98819.52;374819;109;1961023;-75
2021/07/18 04:22:05;;;;;;;;;;;;;;;26.47;59.66;98818.52;374927;107;1960047;-74
2021/07/18 04:23:10;;;;;;;;;;;;;;;26.49;59.46;98822.59;374349;107;1960039;-76
2021/07/18 04:24:22;;;;;;;;;;;;;;;26.66;59.27;98823.68;400388;104;1960933;-75
2021/07/18 04:25:27;;;;;;;;;;;;;;;26.58;59.26;98827.30;371713;107;1960975;-73
2021/07/18 04:26:33;;;;;;;;;;;;;;;26.61;59.00;98821.91;358628;109;1958938;-73
2021/07/18 04:27:38;;;;;;;;;;;;;;;26.64;58.96;98826.77;320476;107;2239010;-74
2021/07/18 04:28:43;;;;;;;;;;;;;;;26.66;58.88;98820.91;303628;107;2384909;-75
2021/07/18 04:29:49;;;;;;;;;;;;;;;26.69;58.71;98828.55;296472;108;2428956;-74
2021/07/18 04:30:56;;;;;;;;;;;;;;;26.69;58.79;98820.23;373720;109;1961072;-73
2021/07/18 04:32:00;;;;;;;;;;;;;;;26.73;58.67;98822.02;375131;108;1960937;-74
2021/07/18 04:33:06;;;;;;;;;;;;;;;26.73;58.27;98823.98;370880;109;1960004;-75
2021/07/18 04:34:11;;;;;;;;;;;;;;;26.73;58.36;98823.98;375603;109;1960046;-75
2021/07/18 04:35:16;;;;;;;;;;;;;;;26.76;58.23;98828.84;349476;107;1960071;-75
2021/07/18 04:36:22;;;;;;;;;;;;;;;26.79;58.14;98830.95;332212;109;2119929;-74
2021/07/18 04:37:28;;;;;;;;;;;;;;;26.82;58.03;98823.92;373904;109;1960053;-74
2021/07/18 04:38:33;;;;;;;;;;;;;;;26.83;58.03;98823.57;375666;109;1962016;-74
2021/07/18 04:39:39;;;;;;;;;;;;;;;26.84;57.99;98822.44;346785;108;1966208;-74
2021/07/18 04:40:44;;;;;;;;;;;;;;;26.85;57.88;98826.83;375919;109;1959949;-75
2021/07/18 04:41:56;;;;;;;;;;;;;;;26.97;57.83;98832.47;396572;104;1961008;-74
2021/07/18 04:43:01;;;;;;;;;;;;;;;26.85;57.74;98832.37;377553;107;1959827;-75
2021/07/18 04:44:06;;;;;;;;;;;;;;;26.87;57.85;98832.05;379696;107;1960278;-73
2021/07/18 04:45:12;;;;;;;;;;;;;;;26.90;57.84;98832.18;376634;107;1962055;-73
2021/07/18 04:46:17;;;;;;;;;;;;;;;26.94;57.73;98821.26;368491;111;1960039;-74
2021/07/18 04:47:22;;;;;;;;;;;;;;;26.99;57.34;98834.89;372101;108;1958925;-75
2021/07/18 04:48:27;;;;;;;;;;;;;;;27.02;57.45;98825.94;375463;108;1959970;-74
2021/07/18 04:49:32;;;;;;;;;;;;;;;27.06;57.25;98832.41;368429;107;1960904;-74
2021/07/18 04:50:46;;;;;;;;;;;;;;;27.20;57.39;98832.19;402839;104;1960073;-76
2021/07/18 04:51:55;;;;;;;;;;;;;;;27.15;57.30;98832.34;381883;107;1960019;-75
2021/07/18 04:53:01;;;;;;;;;;;;;;;27.19;57.18;98836.11;379020;107;1960029;-75
2021/07/18 04:54:06;;;;;;;;;;;;;;;27.24;57.09;98830.38;378512;107;1960004;-77
2021/07/18 04:55:12;;;;;;;;;;;;;;;27.28;56.95;98842.39;375025;109;1959951;-75
2021/07/18 04:56:25;;;;;;;;;;;;;;;27.46;56.85;98839.51;363314;104;2654007;-76
2021/07/18 04:57:30;;;;;;;;;;;;;;;27.42;56.69;98841.35;312155;107;2456007;-75
2021/07/18 04:58:37;;;;;;;;;;;;;;;27.45;56.60;98840.67;311150;107;2381980;-75
2021/07/18 04:59:42;;;;;;;;;;;;;;;27.47;56.36;98838.34;381619;105;1961046;-76
2021/07/18 05:00:48;;;;;;;;;;;;;;;27.49;56.42;98836.05;375071;109;1960998;-74
2021/07/18 05:01:54;;;;;;;;;;;;;;;27.52;56.36;98836.20;382243;107;1960044;-77
2021/07/18 05:02:59;;;;;;;;;;;;;;;27.54;56.17;98833.08;374448;109;1961026;-75
2021/07/18 05:04:10;;;;;;;;;;;;;;;27.68;56.25;98830.84;402941;104;1959981;-74
2021/07/18 05:05:16;;;;;;;;;;;;;;;27.62;56.19;98832.99;377395;107;1960038;-73
2021/07/18 05:06:22;;;;;;;;;;;;;;;27.66;55.79;98841.47;374817;109;1959889;-73
2021/07/18 05:07:27;;;;;;;;;;;;;;;27.68;55.66;98836.40;374944;109;1960042;-73
2021/07/18 05:08:39;;;;;;;;;;;;;;;27.80;55.71;98836.46;405629;104;1959919;-76
2021/07/18 05:09:44;;;;;;;;;;;;;;;27.70;55.77;98838.81;382747;106;1960019;-77
2021/07/18 05:10:50;;;;;;;;;;;;;;;27.72;55.72;98831.77;370703;110;1959884;-76
2021/07/18 05:12:01;;;;;;;;;;;;;;;27.84;55.60;98831.86;392014;104;1959978;-76
2021/07/18 05:13:09;;;;;;;;;;;;;;;27.75;55.52;98835.83;378327;107;1960018;-76
2021/07/18 05:14:14;;;;;;;;;;;;;;;27.75;55.49;98833.06;382410;107;1959951;-76
2021/07/18 05:15:27;;;;;;;;;;;;;;;27.86;55.46;98834.28;394454;104;1959975;-75
2021/07/18 05:16:33;;;;;;;;;;;;;;;27.78;55.43;98835.14;306871;109;2370014;-73
2021/07/18 05:17:39;;;;;;;;;;;;;;;27.80;55.34;98832.84;315098;109;2284013;-74
2021/07/18 05:18:44;;;;;;;;;;;;;;;27.81;55.29;98831.72;303621;107;2471073;-74
2021/07/18 05:19:50;;;;;;;;;;;;;;;27.83;55.42;98830.22;314229;107;2300014;-74
2021/07/18 05:20:55;;;;;;;;;;;;;;;27.87;55.40;98827.59;355671;107;1959879;-72
2021/07/18 05:22:00;;;;;;;;;;;;;;;27.93;55.31;98826.22;315297;109;2291063;-73
2021/07/18 05:23:07;;;;;;;;;;;;;;;27.98;55.25;98826.00;362453;109;1959891;-75
2021/07/18 05:24:12;;;;;;;;;;;;;;;28.03;55.18;98824.98;369423;109;1959937;-74
2021/07/18 05:25:17;;;;;;;;;;;;;;;28.07;55.07;98823.13;343719;109;2025950;-73
2021/07/18 05:26:22;;;;;;;;;;;;;;;28.14;54.96;98820.61;315693;109;2292073;-75
2021/07/18 05:27:28;;;;;;;;;;;;;;;28.18;54.88;98826.28;316049;107;2553023;-73
2021/07/18 05:28:33;;;;;;;;;;;;;;;28.24;54.67;98830.48;315618;109;2550939;-73
2021/07/18 05:29:45;;;;;;;;;;;;;;;28.41;54.43;98827.48;405249;104;1960979;-74
2021/07/18 05:30:50;;;;;;;;;;;;;;;28.34;54.33;98827.27;382636;105;1959995;-74
2021/07/18 05:31:55;;;;;;;;;;;;;;;28.40;54.09;98831.43;383376;105;1959979;-76
2021/07/18 05:33:27;;;;;;;;;;;;;;;28.56;54.02;98828.81;382771;108;1959989;-75
2021/07/18 05:34:32;;;;;;;;;;;;;;;28.49;53.76;98828.57;365845;111;1961060;-76
2021/07/18 05:35:37;;;;;;;;;;;;;;;28.54;53.74;98820.01;362050;112;1960939;-76
2021/07/18 05:36:49;;;;;;;;;;;;;;;28.69;53.73;98815.74;401379;104;1961040;-76
2021/07/18 05:37:54;;;;;;;;;;;;;;;28.58;53.82;98818.17;385128;105;1960037;-75
2021/07/18 05:39:06;;;;;;;;;;;;;;;28.73;53.79;98818.63;380689;110;1960895;-77
2021/07/18 05:40:11;;;;;;;;;;;;;;;28.67;53.71;98818.86;359709;112;1959896;-75
2021/07/18 05:41:16;;;;;;;;;;;;;;;28.75;53.54;98819.09;362125;113;1960897;-76
2021/07/18 05:42:28;;;;;;;;;;;;;;;28.90;53.30;98829.52;401991;103;1959988;-76
2021/07/18 05:43:34;;;;;;;;;;;;;;;28.83;53.23;98826.50;376743;107;1960053;-74
2021/07/18 05:44:40;;;;;;;;;;;;;;;28.86;53.29;98828.58;379229;106;1959943;-75
2021/07/18 05:45:52;;;;;;;;;;;;;;;29.01;53.29;98819.54;388527;106;1959895;-75
2021/07/18 05:46:57;;;;;;;;;;;;;;;28.93;53.07;98824.06;375753;108;1959919;-76
2021/07/18 05:48:04;;;;;;;;;;;;;;;28.98;53.16;98820.25;364465;109;1960061;-75
2021/07/18 05:49:09;;;;;;;;;;;;;;;29.02;53.08;98821.15;375178;109;1959896;-73
2021/07/18 05:50:14;;;;;;;;;;;;;;;29.06;52.96;98819.33;373859;109;1959948;-75
2021/07/18 05:51:20;;;;;;;;;;;;;;;29.06;52.98;98826.87;378259;107;1960013;-74